sensor_id;sensor_type;location;lat;lon;timestamp;P1;durP1;ratioP1;P2;durP2;ratioP2
1336;SDS011;662;48.814;9.318;2023-08-24T00:02:01;6.57;;;6.10;;
1336;SDS011;662;48.814;9.318;2023-08-24T00:04:27;6.87;;;6.30;;
1336;SDS011;662;48.814;9.318;2023-08-24T00:06:53;7.20;;;6.50;;
1336;SDS011;662;48.814;9.318;2023-08-24T00:09:19;6.47;;;5.97;;
1336;SDS011;662;48.814;9.318;2023-08-24T00:11:45;6.63;;;6.13;;
1336;SDS011;662;48.814;9.318;2023-08-24T00:14:11;6.30;;;5.83;;
1336;SDS011;662;48.814;9.318;2023-08-24T00:16:37;7.33;;;6.23;;
1336;SDS011;662;48.814;9.318;2023-08-24T00:19:03;7.80;;;6.03;;
1336;SDS011;662;48.814;9.318;2023-08-24T00:21:28;6.80;;;6.30;;
1336;SDS011;662;48.814;9.318;2023-08-24T00:23:54;6.47;;;5.97;;
1336;SDS011;662;48.814;9.318;2023-08-24T00:26:20;6.27;;;5.87;;
1336;SDS011;662;48.814;9.318;2023-08-24T00:28:46;7.37;;;6.73;;
1336;SDS011;662;48.814;9.318;2023-08-24T00:31:11;6.53;;;6.03;;
1336;SDS011;662;48.814;9.318;2023-08-24T00:33:37;5.73;;;5.33;;
1336;SDS011;662;48.814;9.318;2023-08-24T00:36:05;7.00;;;6.30;;
1336;SDS011;662;48.814;9.318;2023-08-24T00:38:32;6.87;;;6.17;;
1336;SDS011;662;48.814;9.318;2023-08-24T00:40:57;6.60;;;6.10;;
1336;SDS011;662;48.814;9.318;2023-08-24T00:43:27;6.30;;;5.80;;
1336;SDS011;662;48.814;9.318;2023-08-24T00:45:53;6.93;;;6.43;;
1336;SDS011;662;48.814;9.318;2023-08-24T00:48:22;7.30;;;6.60;;
1336;SDS011;662;48.814;9.318;2023-08-24T00:50:52;6.17;;;5.77;;
1336;SDS011;662;48.814;9.318;2023-08-24T00:53:18;7.40;;;6.80;;
1336;SDS011;662;48.814;9.318;2023-08-24T00:55:44;7.80;;;7.20;;
1336;SDS011;662;48.814;9.318;2023-08-24T00:58:11;8.00;;;6.90;;
1336;SDS011;662;48.814;9.318;2023-08-24T01:00:38;7.80;;;7.10;;
1336;SDS011;662;48.814;9.318;2023-08-24T01:03:04;8.20;;;7.40;;
1336;SDS011;662;48.814;9.318;2023-08-24T01:05:30;6.70;;;6.23;;
1336;SDS011;662;48.814;9.318;2023-08-24T01:07:55;8.10;;;7.23;;
1336;SDS011;662;48.814;9.318;2023-08-24T01:10:21;7.33;;;6.63;;
1336;SDS011;662;48.814;9.318;2023-08-24T01:12:52;7.33;;;6.73;;
1336;SDS011;662;48.814;9.318;2023-08-24T01:18:06;6.77;;;6.27;;
1336;SDS011;662;48.814;9.318;2023-08-24T01:20:36;7.70;;;7.00;;
1336;SDS011;662;48.814;9.318;2023-08-24T01:23:14;7.90;;;7.20;;
1336;SDS011;662;48.814;9.318;2023-08-24T01:28:33;6.87;;;6.27;;
1336;SDS011;662;48.814;9.318;2023-08-24T01:30:59;6.87;;;6.20;;
1336;SDS011;662;48.814;9.318;2023-08-24T01:33:25;7.57;;;6.60;;
1336;SDS011;662;48.814;9.318;2023-08-24T01:35:51;6.57;;;6.07;;
1336;SDS011;662;48.814;9.318;2023-08-24T01:38:16;7.20;;;6.60;;
1336;SDS011;662;48.814;9.318;2023-08-24T01:40:48;7.30;;;6.60;;
1336;SDS011;662;48.814;9.318;2023-08-24T01:43:23;6.53;;;6.03;;
1336;SDS011;662;48.814;9.318;2023-08-24T01:45:53;6.27;;;5.77;;
1336;SDS011;662;48.814;9.318;2023-08-24T01:48:21;6.57;;;6.07;;
1336;SDS011;662;48.814;9.318;2023-08-24T01:50:47;7.20;;;6.70;;
1336;SDS011;662;48.814;9.318;2023-08-24T01:53:14;7.30;;;6.60;;
1336;SDS011;662;48.814;9.318;2023-08-24T01:55:40;7.37;;;6.77;;
1336;SDS011;662;48.814;9.318;2023-08-24T01:58:06;7.87;;;7.17;;
1336;SDS011;662;48.814;9.318;2023-08-24T02:00:33;7.60;;;7.00;;
1336;SDS011;662;48.814;9.318;2023-08-24T02:02:58;7.07;;;6.53;;
1336;SDS011;662;48.814;9.318;2023-08-24T02:05:24;8.30;;;6.93;;
1336;SDS011;662;48.814;9.318;2023-08-24T02:07:52;7.50;;;6.90;;
1336;SDS011;662;48.814;9.318;2023-08-24T02:10:19;7.37;;;6.67;;
1336;SDS011;662;48.814;9.318;2023-08-24T02:12:44;7.50;;;7.00;;
1336;SDS011;662;48.814;9.318;2023-08-24T02:15:10;7.50;;;6.67;;
1336;SDS011;662;48.814;9.318;2023-08-24T02:17:36;7.43;;;6.77;;
1336;SDS011;662;48.814;9.318;2023-08-24T02:20:02;8.17;;;7.37;;
1336;SDS011;662;48.814;9.318;2023-08-24T02:22:28;8.10;;;7.20;;
1336;SDS011;662;48.814;9.318;2023-08-24T02:24:55;7.77;;;7.07;;
1336;SDS011;662;48.814;9.318;2023-08-24T02:27:21;7.40;;;6.77;;
1336;SDS011;662;48.814;9.318;2023-08-24T02:29:46;8.27;;;7.13;;
1336;SDS011;662;48.814;9.318;2023-08-24T02:32:12;7.63;;;7.03;;
1336;SDS011;662;48.814;9.318;2023-08-24T02:34:37;8.30;;;6.87;;
1336;SDS011;662;48.814;9.318;2023-08-24T02:37:04;8.50;;;7.67;;
1336;SDS011;662;48.814;9.318;2023-08-24T02:39:29;7.27;;;6.67;;
1336;SDS011;662;48.814;9.318;2023-08-24T02:41:55;8.00;;;7.30;;
1336;SDS011;662;48.814;9.318;2023-08-24T02:44:21;7.50;;;6.80;;
1336;SDS011;662;48.814;9.318;2023-08-24T02:46:47;7.73;;;6.80;;
1336;SDS011;662;48.814;9.318;2023-08-24T02:49:13;7.40;;;6.80;;
1336;SDS011;662;48.814;9.318;2023-08-24T02:51:39;8.27;;;7.57;;
1336;SDS011;662;48.814;9.318;2023-08-24T02:54:05;8.57;;;7.97;;
1336;SDS011;662;48.814;9.318;2023-08-24T02:56:31;8.13;;;7.53;;
1336;SDS011;662;48.814;9.318;2023-08-24T02:58:57;7.43;;;6.83;;
1336;SDS011;662;48.814;9.318;2023-08-24T03:01:23;10.30;;;7.53;;
1336;SDS011;662;48.814;9.318;2023-08-24T03:03:48;8.23;;;7.27;;
1336;SDS011;662;48.814;9.318;2023-08-24T03:06:14;8.00;;;7.40;;
1336;SDS011;662;48.814;9.318;2023-08-24T03:08:40;8.23;;;7.47;;
1336;SDS011;662;48.814;9.318;2023-08-24T03:11:05;8.27;;;7.57;;
1336;SDS011;662;48.814;9.318;2023-08-24T03:13:31;8.33;;;7.73;;
1336;SDS011;662;48.814;9.318;2023-08-24T03:15:57;8.97;;;8.33;;
1336;SDS011;662;48.814;9.318;2023-08-24T03:18:27;7.93;;;7.33;;
1336;SDS011;662;48.814;9.318;2023-08-24T03:20:53;8.33;;;7.53;;
1336;SDS011;662;48.814;9.318;2023-08-24T03:23:18;8.50;;;7.90;;
1336;SDS011;662;48.814;9.318;2023-08-24T03:25:44;8.60;;;7.87;;
1336;SDS011;662;48.814;9.318;2023-08-24T03:28:10;8.67;;;7.87;;
1336;SDS011;662;48.814;9.318;2023-08-24T03:30:37;8.80;;;8.03;;
1336;SDS011;662;48.814;9.318;2023-08-24T03:33:04;9.83;;;8.87;;
1336;SDS011;662;48.814;9.318;2023-08-24T03:35:30;8.47;;;7.77;;
1336;SDS011;662;48.814;9.318;2023-08-24T03:37:56;7.47;;;6.80;;
1336;SDS011;662;48.814;9.318;2023-08-24T03:40:22;8.50;;;7.80;;
1336;SDS011;662;48.814;9.318;2023-08-24T03:42:48;8.77;;;7.87;;
1336;SDS011;662;48.814;9.318;2023-08-24T03:45:13;7.93;;;7.03;;
1336;SDS011;662;48.814;9.318;2023-08-24T03:47:39;8.70;;;8.10;;
1336;SDS011;662;48.814;9.318;2023-08-24T03:50:05;8.90;;;8.00;;
1336;SDS011;662;48.814;9.318;2023-08-24T03:52:31;7.93;;;7.33;;
1336;SDS011;662;48.814;9.318;2023-08-24T03:54:57;8.33;;;7.60;;
1336;SDS011;662;48.814;9.318;2023-08-24T03:57:22;9.23;;;8.53;;
1336;SDS011;662;48.814;9.318;2023-08-24T03:59:48;9.13;;;8.33;;
1336;SDS011;662;48.814;9.318;2023-08-24T04:02:14;8.53;;;7.83;;
1336;SDS011;662;48.814;9.318;2023-08-24T04:04:40;7.40;;;6.83;;
1336;SDS011;662;48.814;9.318;2023-08-24T04:07:05;8.03;;;7.40;;
1336;SDS011;662;48.814;9.318;2023-08-24T04:09:31;8.90;;;7.33;;
1336;SDS011;662;48.814;9.318;2023-08-24T04:11:57;9.10;;;8.17;;
1336;SDS011;662;48.814;9.318;2023-08-24T04:14:22;7.33;;;6.70;;
1336;SDS011;662;48.814;9.318;2023-08-24T04:16:48;7.63;;;6.73;;
1336;SDS011;662;48.814;9.318;2023-08-24T04:19:14;7.93;;;7.30;;
1336;SDS011;662;48.814;9.318;2023-08-24T04:21:39;7.73;;;7.13;;
1336;SDS011;662;48.814;9.318;2023-08-24T04:24:05;8.20;;;7.50;;
1336;SDS011;662;48.814;9.318;2023-08-24T04:26:31;7.27;;;6.67;;
1336;SDS011;662;48.814;9.318;2023-08-24T04:28:57;7.57;;;6.87;;
1336;SDS011;662;48.814;9.318;2023-08-24T04:31:22;7.57;;;6.97;;
1336;SDS011;662;48.814;9.318;2023-08-24T04:33:48;8.10;;;7.27;;
1336;SDS011;662;48.814;9.318;2023-08-24T04:36:13;8.57;;;7.90;;
1336;SDS011;662;48.814;9.318;2023-08-24T04:38:40;8.47;;;7.77;;
1336;SDS011;662;48.814;9.318;2023-08-24T04:41:07;8.63;;;7.37;;
1336;SDS011;662;48.814;9.318;2023-08-24T04:43:34;7.90;;;6.80;;
1336;SDS011;662;48.814;9.318;2023-08-24T04:46:01;7.10;;;6.50;;
1336;SDS011;662;48.814;9.318;2023-08-24T04:48:27;7.70;;;6.87;;
1336;SDS011;662;48.814;9.318;2023-08-24T04:50:57;7.40;;;6.90;;
1336;SDS011;662;48.814;9.318;2023-08-24T04:53:23;14.40;;;11.43;;
1336;SDS011;662;48.814;9.318;2023-08-24T04:55:49;13.10;;;10.77;;
1336;SDS011;662;48.814;9.318;2023-08-24T04:58:15;10.80;;;9.70;;
1336;SDS011;662;48.814;9.318;2023-08-24T05:00:41;11.03;;;8.83;;
1336;SDS011;662;48.814;9.318;2023-08-24T05:03:06;10.23;;;8.20;;
1336;SDS011;662;48.814;9.318;2023-08-24T05:05:33;9.40;;;8.47;;
1336;SDS011;662;48.814;9.318;2023-08-24T05:08:00;7.53;;;6.93;;
1336;SDS011;662;48.814;9.318;2023-08-24T05:10:29;8.10;;;7.47;;
1336;SDS011;662;48.814;9.318;2023-08-24T05:12:56;10.00;;;7.17;;
1336;SDS011;662;48.814;9.318;2023-08-24T05:15:21;7.27;;;6.77;;
1336;SDS011;662;48.814;9.318;2023-08-24T05:17:47;7.97;;;7.23;;
1336;SDS011;662;48.814;9.318;2023-08-24T05:20:13;7.93;;;7.20;;
1336;SDS011;662;48.814;9.318;2023-08-24T05:22:39;8.37;;;7.57;;
1336;SDS011;662;48.814;9.318;2023-08-24T05:25:04;9.30;;;7.93;;
1336;SDS011;662;48.814;9.318;2023-08-24T05:27:31;7.40;;;6.83;;
1336;SDS011;662;48.814;9.318;2023-08-24T05:29:56;8.07;;;7.37;;
1336;SDS011;662;48.814;9.318;2023-08-24T05:32:22;10.87;;;7.30;;
1336;SDS011;662;48.814;9.318;2023-08-24T05:34:48;8.57;;;7.77;;
1336;SDS011;662;48.814;9.318;2023-08-24T05:37:14;7.90;;;6.60;;
1336;SDS011;662;48.814;9.318;2023-08-24T05:39:39;8.30;;;7.50;;
1336;SDS011;662;48.814;9.318;2023-08-24T05:42:05;7.97;;;7.20;;
1336;SDS011;662;48.814;9.318;2023-08-24T05:44:31;7.53;;;6.93;;
1336;SDS011;662;48.814;9.318;2023-08-24T05:46:57;6.93;;;6.43;;
1336;SDS011;662;48.814;9.318;2023-08-24T05:49:23;8.40;;;6.93;;
1336;SDS011;662;48.814;9.318;2023-08-24T05:51:50;6.93;;;6.43;;
1336;SDS011;662;48.814;9.318;2023-08-24T05:54:16;7.90;;;7.20;;
1336;SDS011;662;48.814;9.318;2023-08-24T05:56:45;6.80;;;6.30;;
1336;SDS011;662;48.814;9.318;2023-08-24T05:59:11;7.20;;;6.50;;
1336;SDS011;662;48.814;9.318;2023-08-24T06:01:37;6.33;;;5.73;;
1336;SDS011;662;48.814;9.318;2023-08-24T06:04:04;6.93;;;6.27;;
1336;SDS011;662;48.814;9.318;2023-08-24T06:06:30;6.60;;;6.03;;
1336;SDS011;662;48.814;9.318;2023-08-24T06:08:56;7.13;;;6.50;;
1336;SDS011;662;48.814;9.318;2023-08-24T06:11:22;6.67;;;6.17;;
1336;SDS011;662;48.814;9.318;2023-08-24T06:13:48;7.03;;;6.43;;
1336;SDS011;662;48.814;9.318;2023-08-24T06:16:14;6.43;;;5.90;;
1336;SDS011;662;48.814;9.318;2023-08-24T06:18:39;7.33;;;6.73;;
1336;SDS011;662;48.814;9.318;2023-08-24T06:21:05;6.80;;;6.20;;
1336;SDS011;662;48.814;9.318;2023-08-24T06:23:31;6.20;;;5.70;;
1336;SDS011;662;48.814;9.318;2023-08-24T06:25:56;7.20;;;6.60;;
1336;SDS011;662;48.814;9.318;2023-08-24T06:28:22;6.70;;;6.07;;
1336;SDS011;662;48.814;9.318;2023-08-24T06:30:48;6.80;;;6.20;;
1336;SDS011;662;48.814;9.318;2023-08-24T06:33:13;7.27;;;6.67;;
1336;SDS011;662;48.814;9.318;2023-08-24T06:35:41;7.70;;;6.20;;
1336;SDS011;662;48.814;9.318;2023-08-24T06:38:07;7.03;;;6.43;;
1336;SDS011;662;48.814;9.318;2023-08-24T06:40:32;6.37;;;5.83;;
1336;SDS011;662;48.814;9.318;2023-08-24T06:42:58;7.80;;;7.00;;
1336;SDS011;662;48.814;9.318;2023-08-24T06:45:24;7.53;;;6.83;;
1336;SDS011;662;48.814;9.318;2023-08-24T06:47:49;7.20;;;6.60;;
1336;SDS011;662;48.814;9.318;2023-08-24T06:50:16;9.63;;;7.30;;
1336;SDS011;662;48.814;9.318;2023-08-24T06:52:44;7.67;;;6.50;;
1336;SDS011;662;48.814;9.318;2023-08-24T06:55:09;12.33;;;7.07;;
1336;SDS011;662;48.814;9.318;2023-08-24T06:57:35;9.77;;;6.33;;
1336;SDS011;662;48.814;9.318;2023-08-24T07:00:01;9.43;;;6.53;;
1336;SDS011;662;48.814;9.318;2023-08-24T07:02:31;5.70;;;5.20;;
1336;SDS011;662;48.814;9.318;2023-08-24T07:04:57;6.43;;;5.83;;
1336;SDS011;662;48.814;9.318;2023-08-24T07:07:23;7.77;;;6.97;;
1336;SDS011;662;48.814;9.318;2023-08-24T07:09:48;8.17;;;7.30;;
1336;SDS011;662;48.814;9.318;2023-08-24T07:12:14;8.00;;;7.20;;
1336;SDS011;662;48.814;9.318;2023-08-24T07:14:40;8.20;;;7.10;;
1336;SDS011;662;48.814;9.318;2023-08-24T07:17:05;15.10;;;8.73;;
1336;SDS011;662;48.814;9.318;2023-08-24T07:19:31;16.60;;;9.87;;
1336;SDS011;662;48.814;9.318;2023-08-24T07:21:57;14.23;;;9.03;;
1336;SDS011;662;48.814;9.318;2023-08-24T07:24:23;8.87;;;7.97;;
1336;SDS011;662;48.814;9.318;2023-08-24T07:26:51;8.33;;;7.50;;
1336;SDS011;662;48.814;9.318;2023-08-24T07:29:18;6.60;;;6.10;;
1336;SDS011;662;48.814;9.318;2023-08-24T07:31:44;7.33;;;6.63;;
1336;SDS011;662;48.814;9.318;2023-08-24T07:34:10;6.90;;;6.40;;
1336;SDS011;662;48.814;9.318;2023-08-24T07:36:35;11.70;;;6.70;;
1336;SDS011;662;48.814;9.318;2023-08-24T07:39:01;7.63;;;7.03;;
1336;SDS011;662;48.814;9.318;2023-08-24T07:41:27;7.97;;;6.30;;
1336;SDS011;662;48.814;9.318;2023-08-24T07:43:52;7.70;;;6.00;;
1336;SDS011;662;48.814;9.318;2023-08-24T07:46:18;6.97;;;6.07;;
1336;SDS011;662;48.814;9.318;2023-08-24T07:48:43;7.27;;;6.40;;
1336;SDS011;662;48.814;9.318;2023-08-24T07:51:09;6.60;;;6.00;;
1336;SDS011;662;48.814;9.318;2023-08-24T07:53:35;7.97;;;6.80;;
1336;SDS011;662;48.814;9.318;2023-08-24T07:56:00;7.57;;;6.77;;
1336;SDS011;662;48.814;9.318;2023-08-24T07:58:26;7.17;;;6.57;;
1336;SDS011;662;48.814;9.318;2023-08-24T08:00:52;7.40;;;6.80;;
1336;SDS011;662;48.814;9.318;2023-08-24T08:03:19;7.30;;;6.60;;
1336;SDS011;662;48.814;9.318;2023-08-24T08:05:45;7.03;;;6.43;;
1336;SDS011;662;48.814;9.318;2023-08-24T08:08:13;7.13;;;6.43;;
1336;SDS011;662;48.814;9.318;2023-08-24T08:10:39;8.90;;;6.20;;
1336;SDS011;662;48.814;9.318;2023-08-24T08:13:06;6.03;;;5.50;;
1336;SDS011;662;48.814;9.318;2023-08-24T08:15:32;11.40;;;6.83;;
1336;SDS011;662;48.814;9.318;2023-08-24T08:17:57;7.87;;;6.80;;
1336;SDS011;662;48.814;9.318;2023-08-24T08:20:23;10.63;;;6.50;;
1336;SDS011;662;48.814;9.318;2023-08-24T08:22:49;9.07;;;8.17;;
1336;SDS011;662;48.814;9.318;2023-08-24T08:25:15;8.23;;;6.53;;
1336;SDS011;662;48.814;9.318;2023-08-24T08:27:42;8.93;;;6.47;;
1336;SDS011;662;48.814;9.318;2023-08-24T08:30:09;6.50;;;5.90;;
1336;SDS011;662;48.814;9.318;2023-08-24T08:32:35;7.27;;;6.53;;
1336;SDS011;662;48.814;9.318;2023-08-24T08:35:00;6.90;;;6.30;;
1336;SDS011;662;48.814;9.318;2023-08-24T08:37:27;6.73;;;6.13;;
1336;SDS011;662;48.814;9.318;2023-08-24T08:39:52;12.30;;;6.57;;
1336;SDS011;662;48.814;9.318;2023-08-24T08:42:18;6.10;;;5.50;;
1336;SDS011;662;48.814;9.318;2023-08-24T08:44:45;5.97;;;5.57;;
1336;SDS011;662;48.814;9.318;2023-08-24T08:47:11;5.83;;;5.43;;
1336;SDS011;662;48.814;9.318;2023-08-24T08:49:44;6.03;;;5.47;;
1336;SDS011;662;48.814;9.318;2023-08-24T08:52:11;10.17;;;6.67;;
1336;SDS011;662;48.814;9.318;2023-08-24T08:54:37;5.53;;;4.97;;
1336;SDS011;662;48.814;9.318;2023-08-24T08:57:03;6.40;;;5.90;;
1336;SDS011;662;48.814;9.318;2023-08-24T08:59:29;6.30;;;5.13;;
1336;SDS011;662;48.814;9.318;2023-08-24T09:01:56;5.90;;;5.30;;
1336;SDS011;662;48.814;9.318;2023-08-24T09:04:26;6.97;;;6.37;;
1336;SDS011;662;48.814;9.318;2023-08-24T09:06:54;8.60;;;5.60;;
1336;SDS011;662;48.814;9.318;2023-08-24T09:09:21;6.60;;;5.07;;
1336;SDS011;662;48.814;9.318;2023-08-24T09:11:48;5.40;;;4.90;;
1336;SDS011;662;48.814;9.318;2023-08-24T09:14:13;5.80;;;5.30;;
1336;SDS011;662;48.814;9.318;2023-08-24T09:16:40;6.10;;;5.43;;
1336;SDS011;662;48.814;9.318;2023-08-24T09:19:10;6.50;;;5.17;;
1336;SDS011;662;48.814;9.318;2023-08-24T09:21:39;5.30;;;4.80;;
1336;SDS011;662;48.814;9.318;2023-08-24T09:24:07;6.90;;;5.60;;
1336;SDS011;662;48.814;9.318;2023-08-24T09:26:34;5.50;;;5.00;;
1336;SDS011;662;48.814;9.318;2023-08-24T09:29:10;6.07;;;4.93;;
1336;SDS011;662;48.814;9.318;2023-08-24T09:31:40;4.97;;;4.63;;
1336;SDS011;662;48.814;9.318;2023-08-24T09:34:08;5.10;;;4.70;;
1336;SDS011;662;48.814;9.318;2023-08-24T09:36:35;5.20;;;4.70;;
1336;SDS011;662;48.814;9.318;2023-08-24T09:39:02;4.88;;;4.47;;
1336;SDS011;662;48.814;9.318;2023-08-24T09:44:08;5.22;;;4.82;;
1336;SDS011;662;48.814;9.318;2023-08-24T09:46:35;5.60;;;5.05;;
1336;SDS011;662;48.814;9.318;2023-08-24T09:49:04;6.07;;;5.57;;
1336;SDS011;662;48.814;9.318;2023-08-24T09:51:31;5.40;;;5.00;;
1336;SDS011;662;48.814;9.318;2023-08-24T09:53:58;5.75;;;5.25;;
1336;SDS011;662;48.814;9.318;2023-08-24T09:56:25;5.85;;;5.35;;
1336;SDS011;662;48.814;9.318;2023-08-24T09:58:54;5.85;;;5.05;;
1336;SDS011;662;48.814;9.318;2023-08-24T10:01:23;6.57;;;5.10;;
1336;SDS011;662;48.814;9.318;2023-08-24T10:03:50;5.72;;;5.22;;
1336;SDS011;662;48.814;9.318;2023-08-24T10:06:21;5.43;;;5.03;;
1336;SDS011;662;48.814;9.318;2023-08-24T10:08:50;5.45;;;4.95;;
1336;SDS011;662;48.814;9.318;2023-08-24T10:11:19;5.20;;;4.80;;
1336;SDS011;662;48.814;9.318;2023-08-24T10:13:53;5.13;;;4.82;;
1336;SDS011;662;48.814;9.318;2023-08-24T10:16:24;5.20;;;4.68;;
1336;SDS011;662;48.814;9.318;2023-08-24T10:18:53;4.65;;;4.35;;
1336;SDS011;662;48.814;9.318;2023-08-24T10:21:19;5.85;;;5.38;;
1336;SDS011;662;48.814;9.318;2023-08-24T10:23:45;6.00;;;5.47;;
1336;SDS011;662;48.814;9.318;2023-08-24T10:26:11;4.50;;;4.25;;
1336;SDS011;662;48.814;9.318;2023-08-24T10:28:38;5.72;;;5.28;;
1336;SDS011;662;48.814;9.318;2023-08-24T10:31:04;6.03;;;5.45;;
1336;SDS011;662;48.814;9.318;2023-08-24T10:33:31;6.47;;;5.45;;
1336;SDS011;662;48.814;9.318;2023-08-24T10:35:59;6.60;;;4.68;;
1336;SDS011;662;48.814;9.318;2023-08-24T10:38:28;5.28;;;4.82;;
1336;SDS011;662;48.814;9.318;2023-08-24T10:41:01;6.10;;;5.55;;
1336;SDS011;662;48.814;9.318;2023-08-24T10:43:33;5.90;;;5.30;;
1336;SDS011;662;48.814;9.318;2023-08-24T10:46:00;6.03;;;5.63;;
1336;SDS011;662;48.814;9.318;2023-08-24T10:48:31;5.60;;;5.20;;
1336;SDS011;662;48.814;9.318;2023-08-24T10:54:06;5.90;;;5.50;;
1336;SDS011;662;48.814;9.318;2023-08-24T10:59:10;6.70;;;6.10;;
1336;SDS011;662;48.814;9.318;2023-08-24T11:01:42;8.10;;;7.40;;
1336;SDS011;662;48.814;9.318;2023-08-24T11:04:19;6.43;;;5.93;;
1336;SDS011;662;48.814;9.318;2023-08-24T11:06:52;6.40;;;5.90;;
1336;SDS011;662;48.814;9.318;2023-08-24T11:09:18;6.30;;;5.70;;
1336;SDS011;662;48.814;9.318;2023-08-24T11:11:54;7.00;;;6.40;;
1336;SDS011;662;48.814;9.318;2023-08-24T11:14:25;5.82;;;5.38;;
1336;SDS011;662;48.814;9.318;2023-08-24T11:16:52;6.10;;;5.50;;
1336;SDS011;662;48.814;9.318;2023-08-24T11:19:19;6.28;;;5.80;;
1336;SDS011;662;48.814;9.318;2023-08-24T11:21:45;6.85;;;6.20;;
1336;SDS011;662;48.814;9.318;2023-08-24T11:24:11;6.40;;;5.80;;
1336;SDS011;662;48.814;9.318;2023-08-24T11:26:42;6.47;;;5.80;;
1336;SDS011;662;48.814;9.318;2023-08-24T11:29:09;6.35;;;5.85;;
1336;SDS011;662;48.814;9.318;2023-08-24T11:31:36;6.20;;;5.80;;
1336;SDS011;662;48.814;9.318;2023-08-24T11:34:02;5.30;;;5.00;;
1336;SDS011;662;48.814;9.318;2023-08-24T11:36:29;5.60;;;5.10;;
1336;SDS011;662;48.814;9.318;2023-08-24T11:39:13;5.90;;;5.40;;
1336;SDS011;662;48.814;9.318;2023-08-24T11:41:40;6.53;;;5.78;;
1336;SDS011;662;48.814;9.318;2023-08-24T11:44:06;5.93;;;5.53;;
1336;SDS011;662;48.814;9.318;2023-08-24T11:46:32;6.10;;;5.60;;
1336;SDS011;662;48.814;9.318;2023-08-24T11:48:58;6.55;;;5.95;;
1336;SDS011;662;48.814;9.318;2023-08-24T11:51:27;6.00;;;5.50;;
1336;SDS011;662;48.814;9.318;2023-08-24T11:53:53;5.85;;;5.35;;
1336;SDS011;662;48.814;9.318;2023-08-24T11:56:20;5.70;;;5.07;;
1336;SDS011;662;48.814;9.318;2023-08-24T11:58:47;5.50;;;5.00;;
1336;SDS011;662;48.814;9.318;2023-08-24T12:01:14;5.70;;;5.20;;
1336;SDS011;662;48.814;9.318;2023-08-24T12:03:40;6.47;;;5.97;;
1336;SDS011;662;48.814;9.318;2023-08-24T12:06:15;5.72;;;5.30;;
1336;SDS011;662;48.814;9.318;2023-08-24T12:08:42;5.80;;;5.10;;
1336;SDS011;662;48.814;9.318;2023-08-24T12:11:11;4.82;;;4.53;;
1336;SDS011;662;48.814;9.318;2023-08-24T12:13:38;6.47;;;5.18;;
1336;SDS011;662;48.814;9.318;2023-08-24T12:16:09;5.50;;;5.10;;
1336;SDS011;662;48.814;9.318;2023-08-24T12:18:35;6.65;;;5.88;;
1336;SDS011;662;48.814;9.318;2023-08-24T12:21:11;7.40;;;5.13;;
1336;SDS011;662;48.814;9.318;2023-08-24T12:23:38;5.38;;;4.97;;
1336;SDS011;662;48.814;9.318;2023-08-24T12:26:03;6.13;;;5.53;;
1336;SDS011;662;48.814;9.318;2023-08-24T12:28:32;5.63;;;5.22;;
1336;SDS011;662;48.814;9.318;2023-08-24T12:30:59;5.57;;;5.18;;
1336;SDS011;662;48.814;9.318;2023-08-24T12:33:29;6.82;;;5.60;;
1336;SDS011;662;48.814;9.318;2023-08-24T12:35:56;7.38;;;5.13;;
1336;SDS011;662;48.814;9.318;2023-08-24T12:38:24;5.57;;;5.07;;
1336;SDS011;662;48.814;9.318;2023-08-24T12:40:51;9.13;;;6.22;;
1336;SDS011;662;48.814;9.318;2023-08-24T12:43:17;5.28;;;4.78;;
1336;SDS011;662;48.814;9.318;2023-08-24T12:45:43;6.55;;;5.30;;
1336;SDS011;662;48.814;9.318;2023-08-24T12:48:09;6.30;;;5.90;;
1336;SDS011;662;48.814;9.318;2023-08-24T12:50:35;5.68;;;5.28;;
1336;SDS011;662;48.814;9.318;2023-08-24T12:53:03;6.72;;;6.13;;
1336;SDS011;662;48.814;9.318;2023-08-24T12:55:31;6.13;;;5.63;;
1336;SDS011;662;48.814;9.318;2023-08-24T12:57:58;5.03;;;4.63;;
1336;SDS011;662;48.814;9.318;2023-08-24T13:00:23;5.95;;;5.32;;
1336;SDS011;662;48.814;9.318;2023-08-24T13:02:49;6.70;;;5.45;;
1336;SDS011;662;48.814;9.318;2023-08-24T13:05:16;5.63;;;5.13;;
1336;SDS011;662;48.814;9.318;2023-08-24T13:07:42;6.35;;;5.85;;
1336;SDS011;662;48.814;9.318;2023-08-24T13:10:08;5.43;;;5.03;;
1336;SDS011;662;48.814;9.318;2023-08-24T13:12:34;6.75;;;5.43;;
1336;SDS011;662;48.814;9.318;2023-08-24T13:15:00;5.38;;;4.97;;
1336;SDS011;662;48.814;9.318;2023-08-24T13:17:27;5.45;;;4.95;;
1336;SDS011;662;48.814;9.318;2023-08-24T13:19:54;6.03;;;5.43;;
1336;SDS011;662;48.814;9.318;2023-08-24T13:22:20;7.63;;;6.78;;
1336;SDS011;662;48.814;9.318;2023-08-24T13:24:45;7.75;;;5.53;;
1336;SDS011;662;48.814;9.318;2023-08-24T13:27:11;6.60;;;5.03;;
1336;SDS011;662;48.814;9.318;2023-08-24T13:29:37;8.68;;;5.90;;
1336;SDS011;662;48.814;9.318;2023-08-24T13:32:03;5.82;;;5.40;;
1336;SDS011;662;48.814;9.318;2023-08-24T13:34:29;6.63;;;6.03;;
1336;SDS011;662;48.814;9.318;2023-08-24T13:36:56;5.30;;;4.97;;
1336;SDS011;662;48.814;9.318;2023-08-24T13:39:22;5.30;;;4.90;;
1336;SDS011;662;48.814;9.318;2023-08-24T13:41:48;5.90;;;5.40;;
1336;SDS011;662;48.814;9.318;2023-08-24T13:44:13;5.93;;;4.90;;
1336;SDS011;662;48.814;9.318;2023-08-24T13:46:39;5.20;;;4.80;;
1336;SDS011;662;48.814;9.318;2023-08-24T13:49:05;5.63;;;5.13;;
1336;SDS011;662;48.814;9.318;2023-08-24T13:51:30;5.30;;;4.80;;
1336;SDS011;662;48.814;9.318;2023-08-24T13:53:56;4.60;;;4.20;;
1336;SDS011;662;48.814;9.318;2023-08-24T13:56:21;6.00;;;5.45;;
1336;SDS011;662;48.814;9.318;2023-08-24T13:58:47;4.93;;;4.53;;
1336;SDS011;662;48.814;9.318;2023-08-24T14:01:13;5.15;;;4.68;;
1336;SDS011;662;48.814;9.318;2023-08-24T14:03:39;7.45;;;4.85;;
1336;SDS011;662;48.814;9.318;2023-08-24T14:06:08;5.72;;;5.22;;
1336;SDS011;662;48.814;9.318;2023-08-24T14:08:34;5.60;;;4.57;;
1336;SDS011;662;48.814;9.318;2023-08-24T14:11:00;5.85;;;5.35;;
1336;SDS011;662;48.814;9.318;2023-08-24T14:13:25;5.47;;;4.95;;
1336;SDS011;662;48.814;9.318;2023-08-24T14:15:51;7.82;;;5.05;;
1336;SDS011;662;48.814;9.318;2023-08-24T14:18:17;5.45;;;4.85;;
1336;SDS011;662;48.814;9.318;2023-08-24T14:20:43;4.65;;;4.30;;
1336;SDS011;662;48.814;9.318;2023-08-24T14:23:09;6.25;;;5.30;;
1336;SDS011;662;48.814;9.318;2023-08-24T14:25:35;5.32;;;4.82;;
1336;SDS011;662;48.814;9.318;2023-08-24T14:28:00;7.07;;;5.10;;
1336;SDS011;662;48.814;9.318;2023-08-24T14:30:26;5.75;;;5.05;;
1336;SDS011;662;48.814;9.318;2023-08-24T14:32:52;4.55;;;4.20;;
1336;SDS011;662;48.814;9.318;2023-08-24T14:35:17;5.10;;;4.70;;
1336;SDS011;662;48.814;9.318;2023-08-24T14:37:43;8.20;;;5.57;;
1336;SDS011;662;48.814;9.318;2023-08-24T14:40:08;6.10;;;5.18;;
1336;SDS011;662;48.814;9.318;2023-08-24T14:42:35;7.68;;;4.80;;
1336;SDS011;662;48.814;9.318;2023-08-24T14:45:01;5.85;;;4.90;;
1336;SDS011;662;48.814;9.318;2023-08-24T14:47:26;16.05;;;5.90;;
1336;SDS011;662;48.814;9.318;2023-08-24T14:49:52;6.90;;;4.95;;
1336;SDS011;662;48.814;9.318;2023-08-24T14:52:17;5.88;;;5.28;;
1336;SDS011;662;48.814;9.318;2023-08-24T14:54:43;6.65;;;5.43;;
1336;SDS011;662;48.814;9.318;2023-08-24T14:57:10;5.32;;;4.75;;
1336;SDS011;662;48.814;9.318;2023-08-24T14:59:35;5.40;;;4.90;;
1336;SDS011;662;48.814;9.318;2023-08-24T15:02:01;8.03;;;5.70;;
1336;SDS011;662;48.814;9.318;2023-08-24T15:04:27;5.73;;;5.23;;
1336;SDS011;662;48.814;9.318;2023-08-24T15:06:52;6.47;;;5.77;;
1336;SDS011;662;48.814;9.318;2023-08-24T15:09:18;17.20;;;6.17;;
1336;SDS011;662;48.814;9.318;2023-08-24T15:11:44;8.97;;;6.00;;
1336;SDS011;662;48.814;9.318;2023-08-24T15:14:10;14.10;;;5.93;;
1336;SDS011;662;48.814;9.318;2023-08-24T15:16:36;5.83;;;4.40;;
1336;SDS011;662;48.814;9.318;2023-08-24T15:19:04;9.63;;;4.30;;
1336;SDS011;662;48.814;9.318;2023-08-24T15:21:29;5.73;;;4.47;;
1336;SDS011;662;48.814;9.318;2023-08-24T15:23:55;8.70;;;4.20;;
1336;SDS011;662;48.814;9.318;2023-08-24T15:26:21;9.23;;;5.30;;
1336;SDS011;662;48.814;9.318;2023-08-24T15:31:39;6.20;;;5.60;;
1336;SDS011;662;48.814;9.318;2023-08-24T15:34:05;6.70;;;5.27;;
1336;SDS011;662;48.814;9.318;2023-08-24T15:36:31;4.63;;;3.83;;
1336;SDS011;662;48.814;9.318;2023-08-24T15:38:58;7.83;;;4.67;;
1336;SDS011;662;48.814;9.318;2023-08-24T15:41:23;4.63;;;4.23;;
1336;SDS011;662;48.814;9.318;2023-08-24T15:43:49;6.13;;;4.30;;